createdAt,value
2023-02-19T00:00:25.538Z,999.2
2023-02-19T00:01:26.950Z,999.3
2023-02-19T00:02:28.365Z,999.3
2023-02-19T00:03:29.955Z,999.3
2023-02-19T00:04:31.441Z,999.3
2023-02-19T00:05:32.867Z,999.3
2023-02-19T00:06:34.292Z,999.3
2023-02-19T00:07:35.690Z,999.3
2023-02-19T00:08:37.102Z,999.3
2023-02-19T00:09:38.511Z,999.3
2023-02-19T00:10:39.970Z,999.2
2023-02-19T00:11:41.356Z,999.2
2023-02-19T00:12:42.771Z,999.2
2023-02-19T00:13:44.184Z,999.2
2023-02-19T00:14:45.596Z,999.2
2023-02-19T00:15:47.259Z,999.2
2023-02-19T00:16:48.743Z,999.2
2023-02-19T00:17:50.143Z,999.2
2023-02-19T00:18:51.582Z,999.2
2023-02-19T00:19:52.972Z,999.1
2023-02-19T00:20:54.385Z,999.1
2023-02-19T00:21:55.809Z,999
2023-02-19T00:22:57.220Z,999
2023-02-19T00:23:58.637Z,999
2023-02-19T00:25:00.046Z,999
2023-02-19T00:26:18.708Z,998.9
2023-02-19T00:27:23.812Z,998.9
2023-02-19T00:28:30.277Z,998.8
2023-02-19T00:29:31.693Z,998.8
2023-02-19T00:30:33.169Z,998.8
2023-02-19T00:31:35.057Z,998.8
2023-02-19T00:32:36.814Z,998.8
2023-02-19T00:33:38.247Z,998.8
2023-02-19T00:34:39.939Z,998.7
2023-02-19T00:35:41.257Z,998.6
2023-02-19T00:36:42.684Z,998.5
2023-02-19T00:37:44.090Z,998.4
2023-02-19T00:38:45.505Z,998.4
2023-02-19T00:39:46.918Z,998.4
2023-02-19T00:40:48.336Z,998.4
2023-02-19T00:41:49.756Z,998.4
2023-02-19T00:42:51.176Z,998.5
2023-02-19T00:43:52.580Z,998.5
2023-02-19T00:44:54.005Z,998.4
2023-02-19T00:45:55.423Z,998.4
2023-02-19T00:46:56.841Z,998.4
2023-02-19T00:47:58.251Z,998.4
2023-02-19T00:48:59.664Z,998.4
2023-02-19T00:50:01.975Z,998.5
2023-02-19T00:51:03.410Z,998.5
2023-02-19T00:52:04.819Z,998.5
2023-02-19T00:53:06.237Z,998.5
2023-02-19T00:54:07.657Z,998.5
2023-02-19T00:55:09.063Z,998.5
2023-02-19T00:56:10.482Z,998.5
2023-02-19T00:57:11.894Z,998.5
2023-02-19T00:58:13.308Z,998.4
2023-02-19T00:59:14.730Z,998.4
2023-02-19T01:00:16.145Z,998.4
2023-02-19T01:01:17.589Z,998.3
2023-02-19T01:02:18.972Z,998.3
2023-02-19T01:03:20.390Z,998.3
2023-02-19T01:04:21.878Z,998.3
2023-02-19T01:05:23.300Z,998.3
2023-02-19T01:06:24.884Z,998.3
2023-02-19T01:07:26.295Z,998.3
2023-02-19T01:08:27.708Z,998.3
2023-02-19T01:09:29.124Z,998.3
2023-02-19T01:10:30.537Z,998.3
2023-02-19T01:11:31.955Z,998.3
2023-02-19T01:12:33.368Z,998.2
2023-02-19T01:13:34.779Z,998.2
2023-02-19T01:14:36.195Z,998.3
2023-02-19T01:15:37.334Z,998.3
2023-02-19T01:16:38.473Z,998.2
2023-02-19T01:17:39.604Z,998.2
2023-02-19T01:18:40.773Z,998.1
2023-02-19T01:19:42.203Z,998.1
2023-02-19T01:20:43.747Z,998
2023-02-19T01:21:44.912Z,998
2023-02-19T01:22:46.094Z,998
2023-02-19T01:23:47.286Z,998
2023-02-19T01:24:48.469Z,998
2023-02-19T01:25:49.884Z,998
2023-02-19T01:26:51.056Z,997.9
2023-02-19T01:27:51.920Z,997.9
2023-02-19T01:28:53.333Z,997.9
2023-02-19T01:29:54.758Z,997.9
2023-02-19T01:30:56.204Z,997.8
2023-02-19T01:31:57.801Z,997.8
2023-02-19T01:32:59.027Z,997.8
2023-02-19T01:34:00.166Z,997.8
2023-02-19T01:35:01.422Z,997.8
2023-02-19T01:36:02.862Z,997.8
2023-02-19T01:37:03.476Z,997.7
2023-02-19T01:38:04.882Z,997.7
2023-02-19T01:39:06.048Z,997.7
2023-02-19T01:40:07.435Z,997.7
2023-02-19T01:41:09.307Z,997.6
2023-02-19T01:42:11.403Z,997.6
2023-02-19T01:43:12.817Z,997.6
2023-02-19T01:44:14.232Z,997.6
2023-02-19T01:45:15.648Z,997.6
2023-02-19T01:46:17.112Z,997.6
2023-02-19T01:47:18.304Z,997.6
2023-02-19T01:48:19.708Z,997.6
2023-02-19T01:49:21.130Z,997.6
2023-02-19T01:50:22.816Z,997.5
2023-02-19T01:51:23.972Z,997.5
2023-02-19T01:52:25.364Z,997.5
2023-02-19T01:53:26.780Z,997.4
2023-02-19T01:54:28.195Z,997.4
2023-02-19T01:55:29.606Z,997.4
2023-02-19T01:56:30.744Z,997.4
2023-02-19T01:57:32.163Z,997.3
2023-02-19T01:58:33.578Z,997.3
2023-02-19T01:59:34.996Z,997.3
2023-02-19T02:00:36.430Z,997.3
2023-02-19T02:01:37.575Z,997.3
2023-02-19T02:02:38.888Z,997.3
2023-02-19T02:03:40.317Z,997.3
2023-02-19T02:04:41.713Z,997.3
2023-02-19T02:05:43.147Z,997.3
2023-02-19T02:06:44.572Z,997.3
2023-02-19T02:07:45.955Z,997.2
2023-02-19T02:08:47.373Z,997.2
2023-02-19T02:09:48.785Z,997.2
2023-02-19T02:10:49.923Z,997.2
2023-02-19T02:11:51.353Z,997.1
2023-02-19T02:12:52.767Z,997.2
2023-02-19T02:13:54.169Z,997.2
2023-02-19T02:14:55.582Z,997.2
2023-02-19T02:15:56.762Z,997.2
2023-02-19T02:16:58.169Z,997.2
2023-02-19T02:17:59.586Z,997.2
2023-02-19T02:19:00.728Z,997.2
2023-02-19T02:20:01.618Z,997.1
2023-02-19T02:21:03.035Z,997.1
2023-02-19T02:22:04.492Z,997.1
2023-02-19T02:23:05.594Z,997
2023-02-19T02:24:07.006Z,997
2023-02-19T02:25:08.861Z,996.9
2023-02-19T02:26:10.289Z,996.9
2023-02-19T02:27:11.688Z,996.9
2023-02-19T02:28:13.100Z,996.9
2023-02-19T02:29:14.516Z,996.9
2023-02-19T02:30:15.701Z,996.9
2023-02-19T02:31:17.088Z,996.9
2023-02-19T02:32:18.823Z,996.9
2023-02-19T02:33:19.751Z,996.9
2023-02-19T02:34:20.934Z,996.9
2023-02-19T02:35:22.346Z,996.9
2023-02-19T02:36:23.760Z,996.8
2023-02-19T02:37:25.197Z,996.8
2023-02-19T02:38:26.599Z,996.8
2023-02-19T02:39:28.014Z,996.8
2023-02-19T02:40:29.426Z,996.8
2023-02-19T02:41:30.839Z,996.8
2023-02-19T02:42:32.265Z,996.8
2023-02-19T02:43:33.684Z,996.8
2023-02-19T02:44:35.296Z,996.7
2023-02-19T02:45:37.490Z,996.7
2023-02-19T02:46:38.905Z,996.7
2023-02-19T02:47:40.051Z,996.7
2023-02-19T02:48:41.454Z,996.7
2023-02-19T02:49:42.870Z,996.7
2023-02-19T02:50:44.291Z,996.6
2023-02-19T02:51:45.896Z,996.6
2023-02-19T02:52:47.029Z,996.7
2023-02-19T02:53:48.225Z,996.7
2023-02-19T02:54:49.384Z,996.7
2023-02-19T02:55:50.561Z,996.7
2023-02-19T02:56:51.987Z,996.7
2023-02-19T02:57:52.898Z,996.7
2023-02-19T02:58:54.038Z,996.7
2023-02-19T02:59:55.443Z,996.8
2023-02-19T03:00:56.922Z,996.8
2023-02-19T03:01:58.443Z,996.9
2023-02-19T03:03:00.134Z,996.9
2023-02-19T03:04:01.515Z,996.9
2023-02-19T03:05:02.932Z,996.9
2023-02-19T03:06:03.858Z,996.9
2023-02-19T03:07:05.273Z,996.9
2023-02-19T03:08:06.695Z,996.9
2023-02-19T03:09:08.106Z,996.9
2023-02-19T03:10:09.242Z,996.9
2023-02-19T03:11:11.051Z,996.9
2023-02-19T03:12:12.863Z,996.9
2023-02-19T03:13:14.276Z,996.8
2023-02-19T03:14:15.479Z,996.8
2023-02-19T03:15:16.868Z,996.8
2023-02-19T03:16:18.293Z,996.8
2023-02-19T03:17:19.430Z,996.7
2023-02-19T03:18:20.844Z,996.8
2023-02-19T03:19:22.354Z,996.7
2023-02-19T03:20:23.758Z,996.8
2023-02-19T03:21:25.169Z,996.7
2023-02-19T03:22:26.585Z,996.7
2023-02-19T03:23:28.013Z,996.8
2023-02-19T03:24:29.413Z,996.8
2023-02-19T03:25:30.547Z,996.8
2023-02-19T03:26:31.967Z,996.8
2023-02-19T03:27:33.100Z,996.8
2023-02-19T03:28:34.240Z,996.8
2023-02-19T03:29:35.665Z,996.8
2023-02-19T03:30:37.109Z,996.8
2023-02-19T03:31:38.486Z,996.8
2023-02-19T03:32:39.727Z,996.8
2023-02-19T03:33:41.143Z,996.8
2023-02-19T03:34:42.565Z,996.8
2023-02-19T03:35:43.979Z,996.8
2023-02-19T03:36:45.387Z,996.8
2023-02-19T03:37:46.523Z,996.9
2023-02-19T03:38:48.181Z,996.9
2023-02-19T03:39:49.504Z,997
2023-02-19T03:40:50.905Z,996.9
2023-02-19T03:41:52.317Z,996.9
2023-02-19T03:42:56.351Z,996.9
2023-02-19T03:43:57.740Z,996.9
2023-02-19T03:44:59.149Z,996.8
2023-02-19T03:46:00.745Z,996.8
2023-02-19T03:47:02.254Z,996.8
2023-02-19T03:48:03.672Z,996.8
2023-02-19T03:49:05.097Z,996.8
2023-02-19T03:50:06.217Z,996.8
2023-02-19T03:51:07.356Z,996.8
2023-02-19T03:52:09.048Z,996.8
2023-02-19T03:53:10.461Z,996.8
2023-02-19T03:54:11.878Z,996.8
2023-02-19T03:55:13.287Z,996.8
2023-02-19T03:56:14.707Z,996.8
2023-02-19T03:57:15.843Z,996.8
2023-02-19T03:58:17.256Z,996.8
2023-02-19T03:59:18.428Z,996.8
2023-02-19T04:00:19.622Z,996.8
2023-02-19T04:01:21.041Z,996.8
2023-02-19T04:02:22.481Z,996.8
2023-02-19T04:03:23.976Z,996.8
2023-02-19T04:04:25.586Z,996.7
2023-02-19T04:05:26.975Z,996.7
2023-02-19T04:06:28.390Z,996.7
2023-02-19T04:07:29.805Z,996.7
2023-02-19T04:08:31.236Z,996.7
2023-02-19T04:09:32.632Z,996.7
2023-02-19T04:10:33.769Z,996.8
2023-02-19T04:11:34.905Z,996.8
2023-02-19T04:12:35.803Z,996.7
2023-02-19T04:13:36.982Z,996.8
2023-02-19T04:14:38.117Z,996.8
2023-02-19T04:15:39.526Z,996.8
2023-02-19T04:16:41.016Z,996.8
2023-02-19T04:17:42.177Z,996.9
2023-02-19T04:18:43.359Z,996.9
2023-02-19T04:19:44.764Z,996.8
2023-02-19T04:20:46.180Z,996.9
2023-02-19T04:21:47.597Z,996.9
2023-02-19T04:22:48.732Z,996.8
2023-02-19T04:23:50.252Z,996.9
2023-02-19T04:24:51.134Z,996.9
2023-02-19T04:25:52.357Z,996.8
2023-02-19T04:26:53.771Z,996.9
2023-02-19T04:27:55.189Z,996.9
2023-02-19T04:28:56.332Z,996.9
2023-02-19T04:29:57.745Z,996.8
2023-02-19T04:30:58.946Z,996.8
2023-02-19T04:32:00.137Z,996.8
2023-02-19T04:33:01.658Z,996.9
2023-02-19T04:34:03.199Z,996.8
2023-02-19T04:35:04.620Z,996.9
2023-02-19T04:36:05.809Z,996.9
2023-02-19T04:37:07.237Z,996.9
2023-02-19T04:38:08.637Z,996.9
2023-02-19T04:39:10.058Z,996.9
2023-02-19T04:40:11.474Z,996.9
2023-02-19T04:41:13.258Z,996.9
2023-02-19T04:42:14.774Z,997
2023-02-19T04:43:15.906Z,996.9
2023-02-19T04:44:17.322Z,996.9
2023-02-19T04:45:18.735Z,997
2023-02-19T04:46:20.200Z,997
2023-02-19T04:47:21.457Z,997
2023-02-19T04:48:22.862Z,997
2023-02-19T04:49:24.284Z,997.1
2023-02-19T04:50:25.689Z,997.1
2023-02-19T04:51:26.549Z,997.1
2023-02-19T04:52:27.721Z,997.1
2023-02-19T04:53:29.130Z,997.1
2023-02-19T04:54:30.544Z,997.1
2023-02-19T04:55:31.962Z,997.2
2023-02-19T04:56:33.387Z,997.3
2023-02-19T04:57:34.810Z,997.6
2023-02-19T04:58:36.206Z,997.7
2023-02-19T04:59:37.625Z,997.7
2023-02-19T05:00:38.477Z,997.8
2023-02-19T05:01:39.905Z,997.9
2023-02-19T05:02:40.712Z,997.9
2023-02-19T05:03:41.846Z,998
2023-02-19T05:04:43.062Z,997.9
2023-02-19T05:05:44.265Z,997.9
2023-02-19T05:06:45.664Z,997.9
2023-02-19T05:07:47.078Z,998
2023-02-19T05:08:48.215Z,998
2023-02-19T05:09:49.622Z,998
2023-02-19T05:10:51.053Z,998
2023-02-19T05:11:51.910Z,998
2023-02-19T05:12:53.041Z,998.1
2023-02-19T05:13:54.459Z,998.1
2023-02-19T05:14:55.882Z,998.1
2023-02-19T05:15:57.365Z,998.1
2023-02-19T05:16:58.898Z,998.1
2023-02-19T05:18:00.313Z,998.1
2023-02-19T05:19:01.444Z,998.1
2023-02-19T05:20:02.868Z,998.1
2023-02-19T05:21:04.277Z,998.2
2023-02-19T05:22:05.736Z,998.2
2023-02-19T05:23:07.118Z,998.2
2023-02-19T05:24:08.285Z,998.2
2023-02-19T05:25:09.474Z,998.3
2023-02-19T05:26:10.891Z,998.3
2023-02-19T05:27:12.311Z,998.2
2023-02-19T05:28:13.721Z,998.3
2023-02-19T05:29:14.858Z,998.3
2023-02-19T05:30:16.319Z,998.3
2023-02-19T05:31:18.184Z,998.3
2023-02-19T05:32:19.595Z,998.3
2023-02-19T05:33:21.010Z,998.3
2023-02-19T05:34:22.145Z,998.3
2023-02-19T05:35:23.283Z,998.4
2023-02-19T05:36:24.421Z,998.4
2023-02-19T05:37:25.837Z,998.5
2023-02-19T05:38:27.253Z,998.5
2023-02-19T05:39:28.669Z,998.5
2023-02-19T05:40:29.802Z,998.5
2023-02-19T05:41:31.210Z,998.5
2023-02-19T05:42:32.708Z,998.6
2023-02-19T05:43:34.080Z,998.6
2023-02-19T05:44:35.255Z,998.6
2023-02-19T05:45:36.670Z,998.6
2023-02-19T05:46:38.135Z,998.7
2023-02-19T05:47:39.350Z,998.7
2023-02-19T05:48:40.766Z,998.8
2023-02-19T05:49:42.185Z,998.7
2023-02-19T05:50:43.601Z,998.8
2023-02-19T05:51:44.775Z,998.9
2023-02-19T05:52:46.233Z,999
2023-02-19T05:53:47.631Z,999
2023-02-19T05:54:49.042Z,999
2023-02-19T05:55:50.404Z,999
2023-02-19T05:56:51.822Z,999.1
2023-02-19T05:57:53.248Z,999.2
2023-02-19T05:58:54.649Z,999.2
2023-02-19T05:59:55.838Z,999.3
2023-02-19T06:00:57.508Z,999.3
2023-02-19T06:01:58.641Z,999.3
2023-02-19T06:03:00.263Z,999.3
2023-02-19T06:04:01.847Z,999.3
2023-02-19T06:05:03.162Z,999.3
2023-02-19T06:06:04.552Z,999.4
2023-02-19T06:07:05.697Z,999.4
2023-02-19T06:08:07.109Z,999.4
2023-02-19T06:09:08.312Z,999.5
2023-02-19T06:10:09.442Z,999.5
2023-02-19T06:11:11.383Z,999.5
2023-02-19T06:12:13.425Z,999.5
2023-02-19T06:13:17.870Z,999.5
2023-02-19T06:14:19.042Z,999.6
2023-02-19T06:15:20.451Z,999.6
2023-02-19T06:16:21.688Z,999.6
2023-02-19T06:17:23.283Z,999.7
2023-02-19T06:18:24.717Z,999.8
2023-02-19T06:19:25.842Z,999.9
2023-02-19T06:20:26.971Z,1000
2023-02-19T06:21:28.389Z,1000.1
2023-02-19T06:22:29.566Z,1000.1
2023-02-19T06:23:30.985Z,1000.2
2023-02-19T06:24:32.121Z,1000.2
2023-02-19T06:25:33.262Z,1000.2
2023-02-19T06:26:34.709Z,1000.2
2023-02-19T06:27:35.831Z,1000.2
2023-02-19T06:28:37.248Z,1000.3
2023-02-19T06:29:38.663Z,1000.4
2023-02-19T06:30:40.083Z,1000.5
2023-02-19T06:31:41.412Z,1000.5
2023-02-19T06:32:42.866Z,1000.5
2023-02-19T06:33:44.281Z,1000.5
2023-02-19T06:34:45.693Z,1000.5
2023-02-19T06:35:47.108Z,1000.5
2023-02-19T06:36:48.309Z,1000.5
2023-02-19T06:37:49.530Z,1000.5
2023-02-19T06:38:51.091Z,1000.6
2023-02-19T06:39:52.031Z,1000.6
2023-02-19T06:40:53.434Z,1000.7
2023-02-19T06:41:54.844Z,1000.7
2023-02-19T06:42:56.078Z,1000.7
2023-02-19T06:43:57.488Z,1000.8
2023-02-19T06:44:58.903Z,1000.8
2023-02-19T06:46:00.318Z,1000.8
2023-02-19T06:47:01.759Z,1000.9
2023-02-19T06:48:03.169Z,1000.9
2023-02-19T06:49:04.588Z,1000.8
2023-02-19T06:50:05.766Z,1000.8
2023-02-19T06:51:07.185Z,1000.8
2023-02-19T06:52:08.599Z,1000.9
2023-02-19T06:53:10.018Z,1000.9
2023-02-19T06:54:11.434Z,1000.9
2023-02-19T06:55:12.845Z,1000.9
2023-02-19T06:56:14.114Z,1001
2023-02-19T06:57:15.260Z,1001
2023-02-19T06:58:16.671Z,1001
2023-02-19T06:59:18.086Z,1001.1
2023-02-19T07:00:19.502Z,1001.1
2023-02-19T07:01:21.055Z,1001.2
2023-02-19T07:02:22.468Z,1001.2
2023-02-19T07:03:23.893Z,1001.2
2023-02-19T07:04:25.384Z,1001.3
2023-02-19T07:05:26.907Z,1001.3
2023-02-19T07:06:28.328Z,1001.3
2023-02-19T07:07:29.740Z,1001.3
2023-02-19T07:08:31.151Z,1001.3
2023-02-19T07:09:32.569Z,1001.4
2023-02-19T07:10:33.702Z,1001.4
2023-02-19T07:11:35.119Z,1001.4
2023-02-19T07:12:36.537Z,1001.4
2023-02-19T07:13:37.960Z,1001.5
2023-02-19T07:14:39.090Z,1001.5
2023-02-19T07:15:40.503Z,1001.5
2023-02-19T07:16:42.097Z,1001.5
2023-02-19T07:17:43.519Z,1001.6
2023-02-19T07:18:44.944Z,1001.6
2023-02-19T07:19:46.348Z,1001.6
2023-02-19T07:20:47.762Z,1001.6
2023-02-19T07:21:49.190Z,1001.6
2023-02-19T07:22:50.592Z,1001.7
2023-02-19T07:23:52.011Z,1001.7
2023-02-19T07:24:53.425Z,1001.7
2023-02-19T07:25:54.843Z,1001.7
2023-02-19T07:26:56.256Z,1001.7
2023-02-19T07:27:57.422Z,1001.8
2023-02-19T07:28:58.827Z,1001.8
2023-02-19T07:30:00.289Z,1001.8
2023-02-19T07:31:01.946Z,1001.9
2023-02-19T07:32:03.451Z,1001.9
2023-02-19T07:33:04.982Z,1001.9
2023-02-19T07:34:06.401Z,1001.9
2023-02-19T07:35:07.819Z,1001.9
2023-02-19T07:36:09.236Z,1002
2023-02-19T07:37:10.647Z,1002
2023-02-19T07:38:12.064Z,1002.1
2023-02-19T07:39:13.480Z,1002.1
2023-02-19T07:40:14.897Z,1002.1
2023-02-19T07:41:16.320Z,1002.1
2023-02-19T07:42:17.896Z,1002.2
2023-02-19T07:43:19.312Z,1002.2
2023-02-19T07:44:20.713Z,1002.2
2023-02-19T07:45:22.131Z,1002.2
2023-02-19T07:46:23.590Z,1002.3
2023-02-19T07:47:24.698Z,1002.3
2023-02-19T07:48:26.109Z,1002.3
2023-02-19T07:49:27.526Z,1002.4
2023-02-19T07:50:28.943Z,1002.4
2023-02-19T07:51:30.372Z,1002.4
2023-02-19T07:52:31.784Z,1002.4
2023-02-19T07:53:33.193Z,1002.5
2023-02-19T07:54:34.611Z,1002.5
2023-02-19T07:55:36.034Z,1002.5
2023-02-19T07:56:37.442Z,1002.6
2023-02-19T07:57:38.856Z,1002.6
2023-02-19T07:58:40.280Z,1002.7
2023-02-19T07:59:41.776Z,1002.7
2023-02-19T08:00:43.215Z,1002.8
2023-02-19T08:01:44.605Z,1002.8
2023-02-19T08:02:46.015Z,1002.8
2023-02-19T08:03:50.550Z,1002.8
2023-02-19T08:04:52.058Z,1002.9
2023-02-19T08:05:53.467Z,1002.9
2023-02-19T08:06:54.879Z,1003
2023-02-19T08:07:56.298Z,1003
2023-02-19T08:08:57.716Z,1003
2023-02-19T08:09:59.128Z,1003
2023-02-19T08:11:00.569Z,1003
2023-02-19T08:12:01.969Z,1003
2023-02-19T08:13:03.379Z,1003.1
2023-02-19T08:14:04.797Z,1003.1
2023-02-19T08:15:06.215Z,1003.1
2023-02-19T08:16:26.872Z,1003.2
2023-02-19T08:17:44.407Z,1003.2
2023-02-19T08:18:45.792Z,1003.2
2023-02-19T08:19:47.200Z,1003.2
2023-02-19T08:20:48.627Z,1003.2
2023-02-19T08:21:50.034Z,1003.2
2023-02-19T08:22:51.478Z,1003.2
2023-02-19T08:23:52.888Z,1003.2
2023-02-19T08:24:54.310Z,1003.2
2023-02-19T08:25:55.720Z,1003.2
2023-02-19T08:26:57.140Z,1003.2
2023-02-19T08:27:58.551Z,1003.3
2023-02-19T08:28:59.968Z,1003.3
2023-02-19T08:30:01.430Z,1003.3
2023-02-19T08:31:02.993Z,1003.4
2023-02-19T08:32:04.615Z,1003.4
2023-02-19T08:33:06.011Z,1003.4
2023-02-19T08:34:07.424Z,1003.5
2023-02-19T08:35:08.839Z,1003.5
2023-02-19T08:36:10.483Z,1003.5
2023-02-19T08:37:11.961Z,1003.5
2023-02-19T08:38:13.373Z,1003.5
2023-02-19T08:39:14.791Z,1003.5
2023-02-19T08:40:16.215Z,1003.5
2023-02-19T08:41:17.622Z,1003.5
2023-02-19T08:42:18.758Z,1003.5
2023-02-19T08:43:20.193Z,1003.6
2023-02-19T08:44:21.592Z,1003.6
2023-02-19T08:45:23.005Z,1003.6
2023-02-19T08:46:24.519Z,1003.6
2023-02-19T08:47:26.099Z,1003.6
2023-02-19T08:48:27.517Z,1003.6
2023-02-19T08:49:28.930Z,1003.6
2023-02-19T08:50:30.351Z,1003.6
2023-02-19T08:51:31.765Z,1003.6
2023-02-19T08:52:33.182Z,1003.6
2023-02-19T08:53:34.617Z,1003.6
2023-02-19T08:54:37.716Z,1003.6
2023-02-19T08:55:39.142Z,1003.7
2023-02-19T08:56:40.561Z,1003.6
2023-02-19T08:57:41.974Z,1003.6
2023-02-19T08:58:43.395Z,1003.6
2023-02-19T08:59:44.804Z,1003.6
2023-02-19T09:00:46.227Z,1003.6
2023-02-19T09:01:47.804Z,1003.7
2023-02-19T09:02:49.207Z,1003.7
2023-02-19T09:03:50.811Z,1003.7
2023-02-19T09:04:52.376Z,1003.7
2023-02-19T09:05:53.800Z,1003.8
2023-02-19T09:06:55.215Z,1003.8
2023-02-19T09:07:56.650Z,1003.8
2023-02-19T09:08:58.230Z,1003.8
2023-02-19T09:09:59.644Z,1003.8
2023-02-19T09:11:01.061Z,1003.9
2023-02-19T09:12:02.478Z,1003.9
2023-02-19T09:13:03.932Z,1003.8
2023-02-19T09:14:05.316Z,1003.9
2023-02-19T09:15:06.730Z,1003.9
2023-02-19T09:16:08.363Z,1003.9
2023-02-19T09:17:10.356Z,1003.9
2023-02-19T09:18:11.870Z,1004
2023-02-19T09:19:13.283Z,1004
2023-02-19T09:20:14.701Z,1004
2023-02-19T09:21:16.120Z,1004
2023-02-19T09:22:17.535Z,1004
2023-02-19T09:23:18.953Z,1004
2023-02-19T09:24:20.371Z,1004
2023-02-19T09:25:21.782Z,1004
2023-02-19T09:26:23.200Z,1004
2023-02-19T09:27:24.616Z,1004
2023-02-19T09:28:26.042Z,1004.1
2023-02-19T09:29:27.448Z,1004.1
2023-02-19T09:30:28.969Z,1004.1
2023-02-19T09:31:30.681Z,1004.1
2023-02-19T09:32:32.246Z,1004.1
2023-02-19T09:33:33.670Z,1004.1
2023-02-19T09:34:35.250Z,1004.2
2023-02-19T09:35:36.668Z,1004.2
2023-02-19T09:36:38.084Z,1004.2
2023-02-19T09:37:39.498Z,1004.2
2023-02-19T09:38:40.912Z,1004.2
2023-02-19T09:39:42.336Z,1004.2
2023-02-19T09:40:43.749Z,1004.2
2023-02-19T09:41:45.172Z,1004.2
2023-02-19T09:42:46.584Z,1004.2
2023-02-19T09:43:48.001Z,1004.2
2023-02-19T09:44:49.418Z,1004.2
2023-02-19T09:45:50.549Z,1004.2
2023-02-19T09:46:52.040Z,1004.2
2023-02-19T09:47:53.431Z,1004.2
2023-02-19T09:48:54.852Z,1004.3
2023-02-19T09:49:56.269Z,1004.3
2023-02-19T09:50:57.681Z,1004.3
2023-02-19T09:51:59.106Z,1004.3
2023-02-19T09:53:00.514Z,1004.3
2023-02-19T09:54:01.652Z,1004.3
2023-02-19T09:55:03.069Z,1004.2
2023-02-19T09:56:04.480Z,1004.2
2023-02-19T09:57:06.217Z,1004.2
2023-02-19T09:58:08.060Z,1004.3
2023-02-19T09:59:09.475Z,1004.3
2023-02-19T10:00:10.976Z,1004.3
2023-02-19T10:01:12.844Z,1004.3
2023-02-19T10:02:14.752Z,1004.4
2023-02-19T10:03:16.284Z,1004.4
2023-02-19T10:04:17.706Z,1004.4
2023-02-19T10:05:19.199Z,1004.5
2023-02-19T10:06:20.666Z,1004.5
2023-02-19T10:07:22.087Z,1004.5
2023-02-19T10:08:23.221Z,1004.5
2023-02-19T10:09:24.362Z,1004.6
2023-02-19T10:10:25.781Z,1004.6
2023-02-19T10:11:26.911Z,1004.6
2023-02-19T10:12:28.052Z,1004.7
2023-02-19T10:13:28.921Z,1004.7
2023-02-19T10:14:30.324Z,1004.7
2023-02-19T10:15:31.742Z,1004.7
2023-02-19T10:16:32.646Z,1004.8
2023-02-19T10:17:34.064Z,1004.8
2023-02-19T10:18:35.891Z,1004.8
2023-02-19T10:19:37.319Z,1004.8
2023-02-19T10:20:38.722Z,1004.8
2023-02-19T10:21:39.943Z,1004.8
2023-02-19T10:22:41.053Z,1004.8
2023-02-19T10:23:42.470Z,1004.8
2023-02-19T10:24:43.885Z,1004.8
2023-02-19T10:25:45.307Z,1004.9
2023-02-19T10:26:46.720Z,1004.9
2023-02-19T10:27:48.132Z,1004.9
2023-02-19T10:28:49.557Z,1004.9
2023-02-19T10:29:50.970Z,1004.9
2023-02-19T10:30:52.279Z,1005
2023-02-19T10:31:53.807Z,1004.9
2023-02-19T10:32:55.099Z,1004.9
2023-02-19T10:33:56.551Z,1005
2023-02-19T10:34:57.662Z,1005
2023-02-19T10:35:58.803Z,1005
2023-02-19T10:36:59.938Z,1005
2023-02-19T10:38:01.355Z,1005.1
2023-02-19T10:39:02.278Z,1005.1
2023-02-19T10:40:03.479Z,1005.2
2023-02-19T10:41:04.884Z,1005.2
2023-02-19T10:42:06.038Z,1005.1
2023-02-19T10:43:07.157Z,1005.2
2023-02-19T10:44:08.566Z,1005.2
2023-02-19T10:45:09.742Z,1005.2
2023-02-19T10:46:10.651Z,1005.3
2023-02-19T10:47:11.859Z,1005.3
2023-02-19T10:48:13.276Z,1005.3
2023-02-19T10:49:14.690Z,1005.4
2023-02-19T10:50:15.825Z,1005.4
2023-02-19T10:51:16.963Z,1005.4
2023-02-19T10:52:18.301Z,1005.4
2023-02-19T10:53:19.700Z,1005.5
2023-02-19T10:54:21.119Z,1005.5
2023-02-19T10:55:22.739Z,1005.6
2023-02-19T10:56:24.174Z,1005.6
2023-02-19T10:57:25.578Z,1005.6
2023-02-19T10:58:26.985Z,1005.6
2023-02-19T10:59:28.127Z,1005.6
2023-02-19T11:00:29.313Z,1005.6
2023-02-19T11:01:30.496Z,1005.6
2023-02-19T11:02:31.926Z,1005.6
2023-02-19T11:03:33.320Z,1005.6
2023-02-19T11:04:35.023Z,1005.6
2023-02-19T11:05:36.609Z,1005.6
2023-02-19T11:06:38.012Z,1005.6
2023-02-19T11:07:39.167Z,1005.6
2023-02-19T11:08:40.588Z,1005.7
2023-02-19T11:09:41.758Z,1005.7
2023-02-19T11:10:43.192Z,1005.7
2023-02-19T11:11:44.344Z,1005.7
2023-02-19T11:12:45.759Z,1005.7
2023-02-19T11:13:47.174Z,1005.7
2023-02-19T11:14:48.595Z,1005.8
2023-02-19T11:15:50.035Z,1005.8
2023-02-19T11:16:51.144Z,1005.8
2023-02-19T11:17:52.564Z,1005.8
2023-02-19T11:18:57.196Z,1005.8
2023-02-19T11:19:58.766Z,1005.8
2023-02-19T11:21:00.172Z,1005.8
2023-02-19T11:22:01.603Z,1005.8
2023-02-19T11:23:02.435Z,1005.8
2023-02-19T11:24:03.877Z,1005.8
2023-02-19T11:25:04.987Z,1005.8
2023-02-19T11:26:06.437Z,1005.8
2023-02-19T11:27:07.828Z,1005.8
2023-02-19T11:28:08.675Z,1005.8
2023-02-19T11:29:09.873Z,1005.7
2023-02-19T11:30:11.044Z,1005.7
2023-02-19T11:31:12.832Z,1005.7
2023-02-19T11:32:15.033Z,1005.7
2023-02-19T11:33:16.255Z,1005.6
2023-02-19T11:34:17.651Z,1005.7
2023-02-19T11:35:18.512Z,1005.7
2023-02-19T11:36:19.654Z,1005.7
2023-02-19T11:37:20.818Z,1005.7
2023-02-19T11:38:21.935Z,1005.6
2023-02-19T11:39:23.351Z,1005.8
2023-02-19T11:40:24.776Z,1005.8
2023-02-19T11:41:26.195Z,1005.8
2023-02-19T11:42:29.823Z,1005.8
2023-02-19T11:43:31.219Z,1005.8
2023-02-19T11:44:32.421Z,1005.8
2023-02-19T11:45:33.804Z,1005.9
2023-02-19T11:46:35.025Z,1005.9
2023-02-19T11:47:36.147Z,1005.9
2023-02-19T11:48:37.560Z,1005.8
2023-02-19T11:49:38.981Z,1005.8
2023-02-19T11:50:40.028Z,1005.8
2023-02-19T11:51:41.452Z,1005.7
2023-02-19T11:52:42.625Z,1005.8
2023-02-19T11:53:44.036Z,1005.8
2023-02-19T11:54:45.612Z,1005.8
2023-02-19T11:55:46.724Z,1005.8
2023-02-19T11:56:47.861Z,1005.8
2023-02-19T11:57:49.270Z,1005.8
2023-02-19T11:58:50.702Z,1005.8
2023-02-19T11:59:51.949Z,1005.9
2023-02-19T12:00:53.085Z,1005.9
2023-02-19T12:01:54.229Z,1005.9
2023-02-19T12:02:55.533Z,1005.9
2023-02-19T12:03:56.740Z,1005.9
2023-02-19T12:04:57.766Z,1005.9
2023-02-19T12:05:59.167Z,1005.9
2023-02-19T12:07:00.565Z,1005.9
2023-02-19T12:08:02.134Z,1005.9
2023-02-19T12:09:03.549Z,1005.8
2023-02-19T12:10:05.007Z,1005.8
2023-02-19T12:11:06.466Z,1005.8
2023-02-19T12:12:07.883Z,1005.8
2023-02-19T12:13:09.303Z,1005.8
2023-02-19T12:14:10.711Z,1005.8
2023-02-19T12:15:12.135Z,1005.8
2023-02-19T12:16:13.583Z,1005.8
2023-02-19T12:17:15.504Z,1005.8
2023-02-19T12:18:16.941Z,1005.8
2023-02-19T12:19:18.058Z,1005.9
2023-02-19T12:20:19.208Z,1005.8
2023-02-19T12:21:21.024Z,1005.9
2023-02-19T12:22:22.155Z,1005.9
2023-02-19T12:23:23.587Z,1005.9
2023-02-19T12:24:24.824Z,1005.9
2023-02-19T12:25:25.972Z,1006
2023-02-19T12:26:27.381Z,1006
2023-02-19T12:27:28.795Z,1005.9
2023-02-19T12:28:30.250Z,1006
2023-02-19T12:29:31.663Z,1006
2023-02-19T12:30:33.126Z,1006
2023-02-19T12:31:34.695Z,1006
2023-02-19T12:32:36.286Z,1006
2023-02-19T12:33:37.710Z,1006
2023-02-19T12:34:38.841Z,1006
2023-02-19T12:35:40.253Z,1006
2023-02-19T12:36:41.171Z,1006
2023-02-19T12:37:42.586Z,1006
2023-02-19T12:38:44.006Z,1006
2023-02-19T12:39:44.861Z,1006
2023-02-19T12:40:45.492Z,1006
2023-02-19T12:41:46.344Z,1006
2023-02-19T12:42:48.829Z,1006
2023-02-19T12:43:52.239Z,1005.9
2023-02-19T12:44:53.650Z,1005.9
2023-02-19T12:45:55.170Z,1005.9
2023-02-19T12:46:56.326Z,1006
2023-02-19T12:47:57.470Z,1006
2023-02-19T12:48:58.885Z,1006
2023-02-19T12:50:00.295Z,1006
2023-02-19T12:51:01.712Z,1006
2023-02-19T12:52:03.159Z,1005.9
2023-02-19T12:53:04.552Z,1005.9
2023-02-19T12:54:05.733Z,1006
2023-02-19T12:55:06.878Z,1006
2023-02-19T12:56:08.308Z,1006
2023-02-19T12:57:10.036Z,1006
2023-02-19T12:58:11.435Z,1006
2023-02-19T12:59:12.847Z,1006
2023-02-19T13:00:13.986Z,1006.1
2023-02-19T13:01:15.426Z,1006.1
2023-02-19T13:02:16.863Z,1006.1
2023-02-19T13:03:18.191Z,1006.1
2023-02-19T13:04:19.349Z,1006.1